Aviation Digital Data Service (ADDS)

Output produced by METARs form (0015 UTC 29 August 2015)
found at http://aviationweather.gov/adds/metars/
 
KPHL 282326Z 2900/3006 28004KT P6SM FEW060 
     FM290200 VRB03KT P6SM SKC 
     FM291300 22008KT P6SM FEW050